sensor_id;sensor_type;location;lat;lon;timestamp;temperature;humidity
43541;DHT22;29549;40.386;-3.710;2022-10-16T00:08:02;19.70;48.70
43541;DHT22;29549;40.386;-3.710;2022-10-16T00:18:04;19.60;48.90
43541;DHT22;29549;40.386;-3.710;2022-10-16T00:28:06;19.40;49.30
43541;DHT22;29549;40.386;-3.710;2022-10-16T00:38:08;19.40;49.10
43541;DHT22;29549;40.386;-3.710;2022-10-16T00:48:13;19.30;49.10
43541;DHT22;29549;40.386;-3.710;2022-10-16T00:58:15;19.10;50.50
43541;DHT22;29549;40.386;-3.710;2022-10-16T01:08:37;18.90;51.40
43541;DHT22;29549;40.386;-3.710;2022-10-16T01:18:46;18.80;51.70
43541;DHT22;29549;40.386;-3.710;2022-10-16T01:28:57;18.60;53.00
43541;DHT22;29549;40.386;-3.710;2022-10-16T01:39:06;18.30;53.60
43541;DHT22;29549;40.386;-3.710;2022-10-16T01:49:14;18.20;53.90
43541;DHT22;29549;40.386;-3.710;2022-10-16T01:59:21;18.10;54.60
43541;DHT22;29549;40.386;-3.710;2022-10-16T02:09:30;18.00;55.20
43541;DHT22;29549;40.386;-3.710;2022-10-16T02:19:47;17.80;55.60
43541;DHT22;29549;40.386;-3.710;2022-10-16T02:40:21;17.60;56.70
43541;DHT22;29549;40.386;-3.710;2022-10-16T02:50:25;17.70;56.30
43541;DHT22;29549;40.386;-3.710;2022-10-16T03:00:30;17.60;56.20
43541;DHT22;29549;40.386;-3.710;2022-10-16T03:10:34;17.60;55.90
43541;DHT22;29549;40.386;-3.710;2022-10-16T03:20:39;17.70;54.90
43541;DHT22;29549;40.386;-3.710;2022-10-16T03:30:43;17.70;55.10
43541;DHT22;29549;40.386;-3.710;2022-10-16T03:40:48;17.70;55.10
43541;DHT22;29549;40.386;-3.710;2022-10-16T03:50:51;17.60;56.20
43541;DHT22;29549;40.386;-3.710;2022-10-16T04:00:55;17.30;57.30
43541;DHT22;29549;40.386;-3.710;2022-10-16T04:10:58;17.10;57.00
43541;DHT22;29549;40.386;-3.710;2022-10-16T04:21:05;16.70;58.20
43541;DHT22;29549;40.386;-3.710;2022-10-16T04:31:08;16.40;59.60
43541;DHT22;29549;40.386;-3.710;2022-10-16T04:41:11;16.20;60.30
43541;DHT22;29549;40.386;-3.710;2022-10-16T04:51:14;16.20;60.50
43541;DHT22;29549;40.386;-3.710;2022-10-16T05:01:17;16.10;60.90
43541;DHT22;29549;40.386;-3.710;2022-10-16T05:11:19;15.80;61.40
43541;DHT22;29549;40.386;-3.710;2022-10-16T05:21:22;15.70;61.70
43541;DHT22;29549;40.386;-3.710;2022-10-16T05:31:25;15.70;62.20
43541;DHT22;29549;40.386;-3.710;2022-10-16T05:41:27;15.60;62.20
43541;DHT22;29549;40.386;-3.710;2022-10-16T05:51:30;15.70;62.10
43541;DHT22;29549;40.386;-3.710;2022-10-16T06:01:33;15.70;62.20
43541;DHT22;29549;40.386;-3.710;2022-10-16T06:11:36;15.60;62.50
43541;DHT22;29549;40.386;-3.710;2022-10-16T06:21:41;15.40;63.10
43541;DHT22;29549;40.386;-3.710;2022-10-16T06:31:43;15.20;63.70
43541;DHT22;29549;40.386;-3.710;2022-10-16T06:41:45;15.20;63.60
43541;DHT22;29549;40.386;-3.710;2022-10-16T06:51:48;15.20;63.60
43541;DHT22;29549;40.386;-3.710;2022-10-16T07:01:52;15.10;63.90
43541;DHT22;29549;40.386;-3.710;2022-10-16T07:11:53;15.00;64.00
43541;DHT22;29549;40.386;-3.710;2022-10-16T07:21:55;15.10;64.20
43541;DHT22;29549;40.386;-3.710;2022-10-16T07:31:59;15.10;64.20
43541;DHT22;29549;40.386;-3.710;2022-10-16T07:42:02;15.40;63.70
43541;DHT22;29549;40.386;-3.710;2022-10-16T07:52:04;15.60;63.10
43541;DHT22;29549;40.386;-3.710;2022-10-16T08:02:07;15.80;62.10
43541;DHT22;29549;40.386;-3.710;2022-10-16T08:12:08;15.90;61.20
43541;DHT22;29549;40.386;-3.710;2022-10-16T08:22:13;16.20;60.70
43541;DHT22;29549;40.386;-3.710;2022-10-16T08:32:15;16.50;59.30
43541;DHT22;29549;40.386;-3.710;2022-10-16T08:42:23;16.90;57.90
43541;DHT22;29549;40.386;-3.710;2022-10-16T08:52:34;17.30;56.70
43541;DHT22;29549;40.386;-3.710;2022-10-16T09:02:48;17.70;55.50
43541;DHT22;29549;40.386;-3.710;2022-10-16T09:23:14;18.60;50.80
43541;DHT22;29549;40.386;-3.710;2022-10-16T09:33:20;19.00;49.80
43541;DHT22;29549;40.386;-3.710;2022-10-16T09:43:35;19.30;48.70
43541;DHT22;29549;40.386;-3.710;2022-10-16T09:53:41;19.60;48.70
43541;DHT22;29549;40.386;-3.710;2022-10-16T10:03:44;19.90;48.50
43541;DHT22;29549;40.386;-3.710;2022-10-16T10:13:47;20.20;47.70
43541;DHT22;29549;40.386;-3.710;2022-10-16T10:23:55;20.60;46.80
43541;DHT22;29549;40.386;-3.710;2022-10-16T10:54:37;21.20;45.20
43541;DHT22;29549;40.386;-3.710;2022-10-16T11:25:30;21.90;44.00
43541;DHT22;29549;40.386;-3.710;2022-10-16T11:35:48;22.10;43.80
43541;DHT22;29549;40.386;-3.710;2022-10-16T11:45:53;22.30;43.50
43541;DHT22;29549;40.386;-3.710;2022-10-16T11:55:56;22.30;43.00
43541;DHT22;29549;40.386;-3.710;2022-10-16T12:16:22;22.60;42.20
43541;DHT22;29549;40.386;-3.710;2022-10-16T12:26:37;22.80;41.60
43541;DHT22;29549;40.386;-3.710;2022-10-16T12:36:40;23.10;41.50
43541;DHT22;29549;40.386;-3.710;2022-10-16T12:46:43;23.20;41.30
43541;DHT22;29549;40.386;-3.710;2022-10-16T13:37:46;24.40;39.20
43541;DHT22;29549;40.386;-3.710;2022-10-16T13:47:48;24.40;38.80
43541;DHT22;29549;40.386;-3.710;2022-10-16T13:57:49;24.40;38.40
43541;DHT22;29549;40.386;-3.710;2022-10-16T14:07:51;24.30;38.30
43541;DHT22;29549;40.386;-3.710;2022-10-16T14:17:54;24.30;38.60
43541;DHT22;29549;40.386;-3.710;2022-10-16T14:38:19;24.80;37.90
43541;DHT22;29549;40.386;-3.710;2022-10-16T14:48:20;24.90;37.00
43541;DHT22;29549;40.386;-3.710;2022-10-16T14:58:23;25.10;36.00
43541;DHT22;29549;40.386;-3.710;2022-10-16T15:08:26;24.90;36.50
43541;DHT22;29549;40.386;-3.710;2022-10-16T15:18:27;25.00;36.50
43541;DHT22;29549;40.386;-3.710;2022-10-16T15:28:30;25.00;36.80
43541;DHT22;29549;40.386;-3.710;2022-10-16T15:38:32;25.00;36.80
43541;DHT22;29549;40.386;-3.710;2022-10-16T15:48:33;24.90;37.30
43541;DHT22;29549;40.386;-3.710;2022-10-16T15:58:35;24.90;37.40
43541;DHT22;29549;40.386;-3.710;2022-10-16T16:08:38;24.90;37.80
43541;DHT22;29549;40.386;-3.710;2022-10-16T16:18:44;24.80;36.70
43541;DHT22;29549;40.386;-3.710;2022-10-16T16:28:46;24.70;36.30
43541;DHT22;29549;40.386;-3.710;2022-10-16T16:38:48;24.60;37.30
43541;DHT22;29549;40.386;-3.710;2022-10-16T16:48:50;24.60;38.10
43541;DHT22;29549;40.386;-3.710;2022-10-16T16:58:56;24.50;37.70
43541;DHT22;29549;40.386;-3.710;2022-10-16T17:09:01;24.40;36.30
43541;DHT22;29549;40.386;-3.710;2022-10-16T17:19:11;24.30;35.70
43541;DHT22;29549;40.386;-3.710;2022-10-16T17:29:16;24.20;35.90
43541;DHT22;29549;40.386;-3.710;2022-10-16T17:39:19;24.10;35.80
43541;DHT22;29549;40.386;-3.710;2022-10-16T17:49:21;23.90;36.50
43541;DHT22;29549;40.386;-3.710;2022-10-16T17:59:24;23.70;36.70
43541;DHT22;29549;40.386;-3.710;2022-10-16T18:09:26;23.60;38.10
43541;DHT22;29549;40.386;-3.710;2022-10-16T18:19:29;23.30;37.60
43541;DHT22;29549;40.386;-3.710;2022-10-16T18:29:31;23.20;38.50
43541;DHT22;29549;40.386;-3.710;2022-10-16T18:39:33;23.00;37.90
43541;DHT22;29549;40.386;-3.710;2022-10-16T18:49:35;22.90;38.30
43541;DHT22;29549;40.386;-3.710;2022-10-16T18:59:37;22.60;39.60
43541;DHT22;29549;40.386;-3.710;2022-10-16T19:09:40;22.50;41.70
43541;DHT22;29549;40.386;-3.710;2022-10-16T19:19:41;22.40;44.20
43541;DHT22;29549;40.386;-3.710;2022-10-16T19:29:43;22.20;46.10
43541;DHT22;29549;40.386;-3.710;2022-10-16T19:39:48;22.00;46.60
43541;DHT22;29549;40.386;-3.710;2022-10-16T19:49:49;21.80;47.20
43541;DHT22;29549;40.386;-3.710;2022-10-16T19:59:53;21.70;47.60
43541;DHT22;29549;40.386;-3.710;2022-10-16T20:09:55;21.60;48.10
43541;DHT22;29549;40.386;-3.710;2022-10-16T20:19:56;21.50;48.40
43541;DHT22;29549;40.386;-3.710;2022-10-16T20:29:58;21.60;48.30
43541;DHT22;29549;40.386;-3.710;2022-10-16T20:40:00;21.70;48.20
43541;DHT22;29549;40.386;-3.710;2022-10-16T20:50:02;21.60;48.40
43541;DHT22;29549;40.386;-3.710;2022-10-16T21:00:04;21.40;48.60
43541;DHT22;29549;40.386;-3.710;2022-10-16T21:10:07;21.30;48.90
43541;DHT22;29549;40.386;-3.710;2022-10-16T21:20:08;21.20;48.80
43541;DHT22;29549;40.386;-3.710;2022-10-16T21:30:12;21.20;49.00
43541;DHT22;29549;40.386;-3.710;2022-10-16T21:40:16;21.10;49.60
43541;DHT22;29549;40.386;-3.710;2022-10-16T21:50:18;21.10;50.20
43541;DHT22;29549;40.386;-3.710;2022-10-16T22:00:20;21.00;49.90
43541;DHT22;29549;40.386;-3.710;2022-10-16T22:10:21;20.90;50.30
43541;DHT22;29549;40.386;-3.710;2022-10-16T22:20:23;20.80;50.40
43541;DHT22;29549;40.386;-3.710;2022-10-16T22:30:24;20.80;50.60
43541;DHT22;29549;40.386;-3.710;2022-10-16T22:40:26;20.70;51.20
43541;DHT22;29549;40.386;-3.710;2022-10-16T22:50:34;20.90;51.10
43541;DHT22;29549;40.386;-3.710;2022-10-16T23:00:35;21.00;51.60
43541;DHT22;29549;40.386;-3.710;2022-10-16T23:10:40;21.10;53.30
43541;DHT22;29549;40.386;-3.710;2022-10-16T23:20:42;20.90;56.50
43541;DHT22;29549;40.386;-3.710;2022-10-16T23:30:44;21.00;55.40
43541;DHT22;29549;40.386;-3.710;2022-10-16T23:40:52;21.00;57.40
43541;DHT22;29549;40.386;-3.710;2022-10-16T23:50:54;20.90;56.30
